createdAt,value
2022-12-08T00:04:53.668Z,100054.56
2022-12-08T00:09:55.129Z,100062.78
2022-12-08T00:14:56.593Z,100063.06
2022-12-08T00:19:58.050Z,100060.53
2022-12-08T00:24:59.521Z,100058.78
2022-12-08T00:30:00.986Z,100056.03
2022-12-08T00:35:02.831Z,100050.88
2022-12-08T00:40:05.207Z,100046.56
2022-12-08T00:45:07.106Z,100050.78
2022-12-08T00:50:08.744Z,100047.69
2022-12-08T00:55:10.199Z,100033.53
2022-12-08T01:00:11.964Z,100032.66
2022-12-08T01:05:13.415Z,100025.47
2022-12-08T01:10:15.433Z,100021.41
2022-12-08T01:15:16.900Z,100014.03
2022-12-08T01:20:18.465Z,100015.50
2022-12-08T01:25:19.943Z,100019.59
2022-12-08T01:30:21.500Z,99996.47
2022-12-08T01:35:22.942Z,99994.22
2022-12-08T01:40:24.398Z,100031.09
2022-12-08T01:45:27.066Z,100035.41
2022-12-08T01:50:28.647Z,100038.44
2022-12-08T01:55:33.499Z,100039.00
2022-12-08T02:00:34.947Z,100016.59
2022-12-08T02:05:37.781Z,100018.69
2022-12-08T02:10:40.573Z,100013.81
2022-12-08T02:15:48.861Z,99996.72
2022-12-08T02:21:33.448Z,99997.59
2022-12-08T02:27:00.377Z,99999.50
2022-12-08T02:32:28.280Z,99990.50
2022-12-08T02:37:35.518Z,99979.50
2022-12-08T02:43:14.616Z,99962.91
2022-12-08T02:48:16.083Z,99963.97
2022-12-08T02:53:17.540Z,99964.63
2022-12-08T02:59:06.886Z,99972.75
2022-12-08T03:04:35.586Z,99963.19
2022-12-08T03:09:44.652Z,99964.47
2022-12-08T03:14:48.435Z,99971.38
2022-12-08T03:19:49.906Z,99965.34
2022-12-08T03:24:51.426Z,99961.50
2022-12-08T03:29:54.356Z,99949.50
2022-12-08T03:34:56.544Z,99939.91
2022-12-08T03:39:58.044Z,99936.56
2022-12-08T03:44:59.496Z,99938.97
2022-12-08T03:50:01.102Z,99928.09
2022-12-08T03:55:02.755Z,99961.53
2022-12-08T04:00:05.572Z,99955.47
2022-12-08T04:05:07.375Z,99973.75
2022-12-08T04:10:09.312Z,99980.56
2022-12-08T04:15:10.943Z,99979.25
2022-12-08T04:20:12.458Z,99985.69
2022-12-08T04:25:14.142Z,99965.41
2022-12-08T04:30:15.608Z,99936.75
2022-12-08T04:35:17.131Z,99910.97
2022-12-08T04:40:18.656Z,99933.88
2022-12-08T04:45:20.105Z,99936.47
2022-12-08T04:50:21.577Z,99944.09
2022-12-08T04:55:23.032Z,99937.69
2022-12-08T05:00:24.494Z,99934.97
2022-12-08T05:05:25.982Z,99927.91
2022-12-08T05:10:27.447Z,99936.03
2022-12-08T05:15:28.907Z,99931.41
2022-12-08T05:20:30.364Z,99940.41
2022-12-08T05:25:31.828Z,99930.50
2022-12-08T05:30:33.288Z,99929.59
2022-12-08T05:35:34.745Z,99938.50
2022-12-08T05:40:40.615Z,99919.78
2022-12-08T05:45:42.141Z,99916.66
2022-12-08T05:50:47.890Z,99922.75
2022-12-08T05:55:49.349Z,99915.59
2022-12-08T06:00:50.915Z,99920.50
2022-12-08T06:05:52.407Z,99913.28
2022-12-08T06:10:53.874Z,99909.78
2022-12-08T06:15:55.315Z,99909.03
2022-12-08T06:21:06.982Z,99908.94
2022-12-08T06:26:10.429Z,99910.00
2022-12-08T06:31:13.972Z,99906.78
2022-12-08T06:36:19.768Z,99899.84
2022-12-08T06:41:21.233Z,99918.09
2022-12-08T06:46:22.921Z,99928.25
2022-12-08T06:51:24.451Z,99926.16
2022-12-08T06:56:27.963Z,99949.81
2022-12-08T07:01:29.494Z,99941.41
2022-12-08T07:06:30.978Z,99943.56
2022-12-08T07:11:32.427Z,99947.13
2022-12-08T07:16:33.930Z,99956.22
2022-12-08T07:21:35.415Z,99967.59
2022-12-08T07:26:36.929Z,99974.69
2022-12-08T07:31:38.416Z,99986.22
2022-12-08T07:36:39.894Z,99989.31
2022-12-08T07:41:41.359Z,99980.88
2022-12-08T07:46:42.877Z,99985.00
2022-12-08T07:51:44.386Z,99988.19
2022-12-08T07:56:45.839Z,100001.09
2022-12-08T08:02:05.085Z,99992.94
2022-12-08T08:07:09.762Z,99999.09
2022-12-08T08:12:30.338Z,100001.41
2022-12-08T08:17:32.737Z,100010.47
2022-12-08T08:22:34.340Z,100011.00
2022-12-08T08:27:35.791Z,100018.78
2022-12-08T08:32:37.235Z,100037.13
2022-12-08T08:37:38.687Z,100038.06
2022-12-08T08:42:40.157Z,100047.72
2022-12-08T08:47:41.636Z,100034.81
2022-12-08T08:52:43.127Z,100051.50
2022-12-08T08:57:44.599Z,100051.09
2022-12-08T09:02:46.057Z,100057.59
2022-12-08T09:07:47.661Z,100065.00
2022-12-08T09:12:49.479Z,100067.00
2022-12-08T09:17:50.936Z,100081.25
2022-12-08T09:22:52.383Z,100075.47
2022-12-08T09:27:53.838Z,100086.56
2022-12-08T09:32:55.391Z,100084.34
2022-12-08T09:37:56.846Z,100090.81
2022-12-08T09:43:22.734Z,100093.03
2022-12-08T09:48:32.808Z,100092.97
2022-12-08T09:53:37.237Z,100097.69
2022-12-08T09:58:54.945Z,100094.75
2022-12-08T10:03:56.435Z,100108.44
2022-12-08T10:09:22.710Z,100106.00
2022-12-08T10:14:26.971Z,100105.44
2022-12-08T10:19:28.466Z,100096.47
2022-12-08T10:24:34.316Z,100102.63
2022-12-08T10:29:35.777Z,100108.84
2022-12-08T10:34:37.233Z,100106.00
2022-12-08T10:39:45.607Z,100097.31
2022-12-08T10:45:08.932Z,100101.94
2022-12-08T10:50:27.816Z,100108.41
2022-12-08T10:55:29.439Z,100110.16
2022-12-08T11:00:31.067Z,100116.44
2022-12-08T11:05:34.059Z,100113.81
2022-12-08T11:10:43.466Z,100121.38
2022-12-08T11:15:44.933Z,100125.72
2022-12-08T11:20:46.386Z,100111.91
2022-12-08T11:25:48.704Z,100118.13
2022-12-08T11:30:54.740Z,100110.97
2022-12-08T11:36:04.838Z,100107.03
2022-12-08T11:41:19.192Z,100109.28
2022-12-08T11:46:53.179Z,100121.41
2022-12-08T11:52:12.060Z,100124.81
2022-12-08T11:57:16.480Z,100112.97
2022-12-08T12:02:25.339Z,100109.97
2022-12-08T12:08:05.134Z,100107.84
2022-12-08T12:13:27.762Z,100106.88
2022-12-08T12:18:31.308Z,100118.72
2022-12-08T12:23:48.763Z,100118.59
2022-12-08T12:28:54.651Z,100129.38
2022-12-08T12:34:04.813Z,100120.16
2022-12-08T12:39:08.508Z,100126.44
2022-12-08T12:44:12.618Z,100124.66
2022-12-08T12:49:38.643Z,100119.09
2022-12-08T12:54:42.626Z,100123.47
2022-12-08T12:59:55.484Z,100112.78
2022-12-08T13:05:08.884Z,100116.94
2022-12-08T13:10:16.294Z,100108.94
2022-12-08T13:15:22.111Z,100107.16
2022-12-08T13:20:24.312Z,100106.00
2022-12-08T13:25:48.077Z,100107.44
2022-12-08T13:30:50.305Z,100121.19
2022-12-08T13:35:56.620Z,100126.72
2022-12-08T13:40:58.182Z,100133.06
2022-12-08T13:46:52.836Z,100148.97
2022-12-08T14:02:28.073Z,100155.44
2022-12-08T14:07:29.594Z,100153.16
2022-12-08T14:12:31.042Z,100152.41
2022-12-08T14:17:32.725Z,100149.13
2022-12-08T14:22:37.753Z,100160.06
2022-12-08T14:27:39.299Z,100165.75
2022-12-08T14:32:46.660Z,100160.13
2022-12-08T14:37:48.782Z,100163.75
2022-12-08T14:43:09.213Z,100171.41
2022-12-08T14:48:33.487Z,100155.34
2022-12-08T14:53:42.237Z,100154.41
2022-12-08T14:58:43.774Z,100152.84
2022-12-08T15:03:50.707Z,100147.44
2022-12-08T15:08:58.746Z,100150.66
2022-12-08T15:14:00.357Z,100147.63
2022-12-08T15:19:31.548Z,100159.97
2022-12-08T15:24:35.495Z,100153.84
2022-12-08T15:29:36.999Z,100171.00
2022-12-08T15:34:38.480Z,100159.69
2022-12-08T15:39:39.934Z,100171.50
2022-12-08T15:44:41.564Z,100178.78
2022-12-08T15:49:43.035Z,100171.69
2022-12-08T15:54:44.497Z,100182.69
2022-12-08T15:59:45.991Z,100188.47
2022-12-08T16:05:33.256Z,100192.91
2022-12-08T16:10:17.943Z,100192.84
2022-12-08T16:26:24.000Z,100193.34
2022-12-08T16:31:23.956Z,100198.56
2022-12-08T16:36:25.540Z,100195.03
2022-12-08T16:41:45.346Z,100195.34
2022-12-08T16:46:46.816Z,100188.34
2022-12-08T16:51:48.307Z,100193.03
2022-12-08T16:56:49.829Z,100204.88
2022-12-08T17:01:51.282Z,100208.44
2022-12-08T17:06:52.967Z,100203.00
2022-12-08T17:11:58.819Z,100193.19
2022-12-08T17:17:03.669Z,100189.38
2022-12-08T17:22:05.502Z,100183.25
2022-12-08T17:27:06.986Z,100184.66
2022-12-08T17:32:08.526Z,100188.59
2022-12-08T17:37:10.085Z,100192.66
2022-12-08T17:42:11.565Z,100193.88
2022-12-08T17:47:13.027Z,100193.56
2022-12-08T17:52:14.492Z,100195.38
2022-12-08T17:57:15.951Z,100187.84
2022-12-08T18:02:18.080Z,100199.66
2022-12-08T18:07:19.594Z,100196.13
2022-12-08T18:12:23.873Z,100195.53
2022-12-08T18:17:25.580Z,100197.97
2022-12-08T18:22:27.121Z,100190.03
2022-12-08T18:27:28.575Z,100183.22
2022-12-08T18:32:30.039Z,100185.16
2022-12-08T18:37:31.499Z,100190.38
2022-12-08T18:42:32.975Z,100189.16
2022-12-08T18:47:36.221Z,100186.88
2022-12-08T18:52:37.688Z,100187.75
2022-12-08T18:57:40.001Z,100188.41
2022-12-08T19:02:41.658Z,100193.22
2022-12-08T19:07:43.579Z,100194.97
2022-12-08T19:12:45.069Z,100185.84
2022-12-08T19:17:46.529Z,100182.22
2022-12-08T19:22:47.992Z,100186.63
2022-12-08T19:27:49.453Z,100182.75
2022-12-08T19:32:50.912Z,100175.56
2022-12-08T19:37:52.457Z,100165.28
2022-12-08T19:43:12.636Z,100180.91
2022-12-08T19:48:14.126Z,100167.66
2022-12-08T19:53:15.730Z,100171.78
2022-12-08T19:58:17.446Z,100172.69
2022-12-08T20:03:19.705Z,100169.22
2022-12-08T20:08:21.321Z,100173.53
2022-12-08T20:13:40.829Z,100174.00
2022-12-08T20:18:42.473Z,100167.88
2022-12-08T20:23:45.541Z,100175.41
2022-12-08T20:28:47.115Z,100162.75
2022-12-08T20:33:48.684Z,100161.50
2022-12-08T20:38:50.763Z,100159.63
2022-12-08T20:43:52.373Z,100173.47
2022-12-08T20:48:53.930Z,100181.13
2022-12-08T20:53:55.468Z,100173.13
2022-12-08T20:58:57.077Z,100174.84
2022-12-08T21:03:58.729Z,100171.09
2022-12-08T21:09:00.494Z,100170.38
2022-12-08T21:14:02.104Z,100162.66
2022-12-08T21:19:03.697Z,100174.38
2022-12-08T21:24:05.730Z,100176.78
2022-12-08T21:29:07.235Z,100175.72
2022-12-08T21:34:09.571Z,100173.13
2022-12-08T21:39:12.831Z,100174.47
2022-12-08T21:44:15.311Z,100168.41
2022-12-08T21:49:17.015Z,100162.25
2022-12-08T21:54:19.372Z,100162.00
2022-12-08T21:59:21.282Z,100162.75
2022-12-08T22:04:24.559Z,100151.66
2022-12-08T22:09:28.236Z,100152.28
2022-12-08T22:14:29.810Z,100148.75
2022-12-08T22:19:31.601Z,100146.28
2022-12-08T22:24:33.269Z,100140.88
2022-12-08T22:29:34.883Z,100161.28
2022-12-08T22:34:36.680Z,100163.41
2022-12-08T22:39:38.324Z,100150.97
2022-12-08T22:44:39.904Z,100150.91
2022-12-08T22:49:41.471Z,100145.31
2022-12-08T22:54:43.177Z,100139.31
2022-12-08T22:59:44.671Z,100142.19
2022-12-08T23:04:46.351Z,100136.84
2022-12-08T23:09:48.182Z,100125.25
2022-12-08T23:14:49.639Z,100122.75
2022-12-08T23:19:51.101Z,100136.47
2022-12-08T23:24:52.679Z,100130.56
2022-12-08T23:29:54.222Z,100127.47
2022-12-08T23:34:55.669Z,100121.03
2022-12-08T23:39:57.142Z,100120.22
2022-12-08T23:44:58.837Z,100123.53
2022-12-08T23:50:00.352Z,100122.44
2022-12-08T23:55:01.874Z,100124.34
